Time;durP1;ratioP1;P1;durP2;ratioP2;P2;SDS_P1;SDS_P2;PMS_P1;PMS_P2;Temp;Humidity;BMP_temperature;BMP_pressure;BME280_temperature;BME280_humidity;BME280_pressure;Samples;Min_cycle;Max_cycle;Signal;HPM_P1;HPM_P2
2023/07/04 00:00:13;;;;;;;8.48;2.78;;;19.40;69.40;;;;;;2093302;28;20488;-70
2023/07/04 00:01:16;;;;;;;8.27;2.60;;;19.40;69.50;;;;;;2091040;28;20087;-70
2023/07/04 00:02:16;;;;;;;9.93;2.97;;;19.40;69.70;;;;;;2093027;28;20082;-70
2023/07/04 00:03:17;;;;;;;5.80;2.58;;;19.30;69.80;;;;;;2089854;28;20025;-70
2023/07/04 00:04:20;;;;;;;7.55;2.72;;;19.30;69.90;;;;;;2092689;28;20025;-70
2023/07/04 00:05:20;;;;;;;5.57;2.30;;;19.40;70.00;;;;;;2091889;28;20021;-70
2023/07/04 00:06:23;;;;;;;9.07;3.60;;;19.30;70.10;;;;;;2091739;28;20343;-70
2023/07/04 00:07:24;;;;;;;11.85;2.90;;;19.30;70.30;;;;;;2092521;28;20028;-70
2023/07/04 00:08:26;;;;;;;7.00;2.78;;;19.30;70.50;;;;;;2092244;28;20025;-70
2023/07/04 00:09:26;;;;;;;11.32;3.35;;;19.30;70.80;;;;;;2091995;28;20242;-70
2023/07/04 00:10:27;;;;;;;11.93;2.90;;;19.30;71.00;;;;;;2090086;28;20075;-70
2023/07/04 00:11:29;;;;;;;6.90;2.65;;;19.30;71.10;;;;;;2090877;28;20099;-70
2023/07/04 00:12:31;;;;;;;8.50;2.75;;;19.30;71.30;;;;;;2091028;28;20111;-70
2023/07/04 00:13:33;;;;;;;12.27;3.55;;;19.30;71.60;;;;;;2090900;28;20087;-70
2023/07/04 00:14:33;;;;;;;9.05;2.70;;;19.30;71.80;;;;;;2092481;28;20113;-70
2023/07/04 00:15:34;;;;;;;10.45;3.50;;;19.20;71.70;;;;;;2092073;28;20048;-70
2023/07/04 00:16:34;;;;;;;9.00;2.95;;;19.30;72.00;;;;;;2091532;28;20117;-70
2023/07/04 00:17:35;;;;;;;7.97;3.15;;;19.20;72.10;;;;;;2091983;28;20090;-70
2023/07/04 00:18:38;;;;;;;11.30;3.47;;;19.30;72.30;;;;;;2090736;28;20024;-70
2023/07/04 00:19:39;;;;;;;10.95;3.22;;;19.20;72.50;;;;;;2091510;28;20033;-70
2023/07/04 00:20:40;;;;;;;9.10;3.10;;;19.20;72.70;;;;;;2089479;28;20058;-70
2023/07/04 00:21:41;;;;;;;9.23;2.88;;;19.20;72.70;;;;;;2090704;28;20029;-70
2023/07/04 00:22:44;;;;;;;9.25;2.92;;;19.20;72.90;;;;;;2091615;28;20067;-70
2023/07/04 00:23:47;;;;;;;5.63;2.97;;;19.20;73.20;;;;;;2092872;28;20032;-70
2023/07/04 00:24:47;;;;;;;7.45;3.30;;;19.20;73.50;;;;;;2091603;28;20025;-70
2023/07/04 00:25:48;;;;;;;7.78;3.55;;;19.20;73.80;;;;;;2093093;28;20029;-71
2023/07/04 00:26:49;;;;;;;8.43;2.92;;;19.20;73.90;;;;;;2092786;28;20017;-70
2023/07/04 00:27:49;;;;;;;9.75;3.45;;;19.20;74.10;;;;;;2091680;28;20025;-70
2023/07/04 00:28:50;;;;;;;6.22;3.03;;;19.20;74.30;;;;;;2092319;28;20033;-70
2023/07/04 00:29:50;;;;;;;11.70;3.30;;;19.10;74.60;;;;;;2092116;28;20125;-70
2023/07/04 00:30:52;;;;;;;8.25;3.80;;;19.10;74.90;;;;;;2090210;28;20178;-70
2023/07/04 00:31:53;;;;;;;5.60;3.35;;;19.10;75.20;;;;;;2092104;28;20119;-70
2023/07/04 00:32:53;;;;;;;9.15;2.95;;;19.10;75.30;;;;;;2092840;28;20025;-70
2023/07/04 00:33:54;;;;;;;8.10;2.97;;;19.10;75.60;;;;;;2090510;28;20052;-70
2023/07/04 00:34:55;;;;;;;11.18;3.72;;;19.10;76.00;;;;;;2091870;28;20032;-70
2023/07/04 00:36:04;;;;;;;9.55;2.88;;;19.10;77.10;;;;;;2093394;28;20082;-70
2023/07/04 00:37:05;;;;;;;10.38;3.25;;;19.10;77.40;;;;;;2092169;28;20025;-70
2023/07/04 00:38:09;;;;;;;8.85;3.13;;;19.10;77.60;;;;;;2094146;28;20025;-70
2023/07/04 00:39:09;;;;;;;8.95;3.03;;;19.10;78.20;;;;;;2091172;28;20099;-70
2023/07/04 00:40:12;;;;;;;8.48;3.20;;;19.10;79.40;;;;;;2090107;28;20117;-70
2023/07/04 00:41:16;;;;;;;6.15;2.90;;;19.10;78.60;;;;;;2092317;28;20016;-70
2023/07/04 00:42:17;;;;;;;8.45;3.05;;;19.20;79.70;;;;;;2091180;28;20488;-70
2023/07/04 00:43:17;;;;;;;12.07;3.17;;;19.10;80.30;;;;;;2091262;28;20391;-70
2023/07/04 00:44:30;;;;;;;6.85;2.47;;;19.10;80.50;;;;;;2092949;28;20399;-70
2023/07/04 00:45:37;;;;;;;5.55;3.00;;;19.10;81.30;;;;;;2094039;28;20017;-70
2023/07/04 00:46:51;;;;;;;8.63;3.05;;;19.10;81.10;;;;;;2089834;28;20535;-70
2023/07/04 00:48:00;;;;;;;8.75;3.00;;;19.10;81.30;;;;;;2090049;28;20366;-70
2023/07/04 00:49:00;;;;;;;8.60;2.97;;;19.10;81.60;;;;;;2090881;28;20017;-70
2023/07/04 00:50:07;;;;;;;7.85;2.60;;;19.00;81.40;;;;;;2090730;28;20498;-70
2023/07/04 00:51:09;;;;;;;10.05;3.50;;;19.10;82.00;;;;;;2092105;28;20495;-70
2023/07/04 00:52:14;;;;;;;11.85;3.75;;;19.00;81.10;;;;;;2091846;28;20032;-70
2023/07/04 00:53:15;;;;;;;7.97;3.10;;;19.10;82.20;;;;;;2089457;28;20407;-70
2023/07/04 00:54:19;;;;;;;7.68;3.10;;;19.10;82.00;;;;;;2090671;28;20033;-70
2023/07/04 00:55:20;;;;;;;9.80;3.97;;;19.00;82.10;;;;;;2092542;28;20029;-70
2023/07/04 00:56:25;;;;;;;8.70;3.00;;;19.00;81.70;;;;;;2091711;28;20060;-70
2023/07/04 00:57:31;;;;;;;8.13;3.03;;;19.00;81.90;;;;;;2091583;28;20493;-70
2023/07/04 00:58:32;;;;;;;10.32;3.20;;;19.00;81.90;;;;;;2090911;28;20040;-70
2023/07/04 00:59:34;;;;;;;9.07;3.30;;;19.00;81.90;;;;;;2090729;28;20052;-70
2023/07/04 01:00:37;;;;;;;10.23;3.33;;;19.00;82.00;;;;;;2089862;28;20077;-70
2023/07/04 01:01:37;;;;;;;9.40;3.28;;;19.00;82.20;;;;;;2091204;28;20400;-70
2023/07/04 01:02:38;;;;;;;12.25;3.33;;;18.90;82.20;;;;;;2091245;28;20028;-70
2023/07/04 01:03:39;;;;;;;10.73;3.33;;;18.90;82.40;;;;;;2091540;28;20025;-70
2023/07/04 01:04:40;;;;;;;8.45;3.00;;;18.90;82.40;;;;;;2092140;28;20104;-70
2023/07/04 01:05:55;;;;;;;9.57;3.63;;;19.00;82.40;;;;;;2092201;28;20059;-70
2023/07/04 01:07:07;;;;;;;8.85;2.95;;;19.00;83.10;;;;;;2090199;28;20067;-70
2023/07/04 01:08:37;;;;;;;9.13;2.83;;;18.90;83.50;;;;;;2091440;28;20046;-70
2023/07/04 01:09:44;;;;;;;9.75;2.80;;;18.90;83.80;;;;;;2092546;28;20456;-70
2023/07/04 01:10:47;;;;;;;7.88;2.88;;;18.90;83.40;;;;;;2092101;28;20036;-70
2023/07/04 01:11:49;;;;;;;10.80;3.88;;;18.90;84.00;;;;;;2093766;28;20107;-70
2023/07/04 01:12:49;;;;;;;8.57;3.00;;;18.90;84.00;;;;;;2093996;28;20025;-70
2023/07/04 01:13:50;;;;;;;9.80;3.25;;;18.90;84.10;;;;;;2093620;28;20028;-70
2023/07/04 01:14:53;;;;;;;8.32;2.85;;;18.80;84.20;;;;;;2091974;28;20104;-70
2023/07/04 01:15:54;;;;;;;11.82;3.72;;;18.80;84.00;;;;;;2093953;28;20028;-70
2023/07/04 01:16:55;;;;;;;11.75;4.18;;;18.80;84.30;;;;;;2091745;28;20025;-70
2023/07/04 01:17:56;;;;;;;11.02;3.22;;;18.80;84.50;;;;;;2092437;28;20028;-70
2023/07/04 01:18:58;;;;;;;10.10;3.95;;;18.80;84.70;;;;;;2093480;28;20419;-70
2023/07/04 01:20:00;;;;;;;10.73;3.42;;;18.80;84.80;;;;;;2092418;28;20043;-70
2023/07/04 01:21:05;;;;;;;8.57;3.60;;;18.80;84.80;;;;;;2092794;28;20020;-70
2023/07/04 01:22:19;;;;;;;10.25;3.03;;;18.80;85.10;;;;;;2094475;28;20035;-70
2023/07/04 01:23:37;;;;;;;12.48;4.20;;;18.80;85.80;;;;;;2090079;28;20048;-70
2023/07/04 01:24:52;;;;;;;8.82;2.88;;;18.80;85.80;;;;;;2091423;28;20468;-70
2023/07/04 01:26:20;;;;;;;9.15;3.38;;;18.80;85.80;;;;;;2093690;28;20396;-70
2023/07/04 01:27:22;;;;;;;6.85;3.00;;;18.80;86.50;;;;;;2092831;28;20024;-70
2023/07/04 01:28:24;;;;;;;11.13;4.22;;;18.80;86.00;;;;;;2091041;28;20027;-70
2023/07/04 01:29:25;;;;;;;14.02;3.55;;;18.80;86.20;;;;;;2092837;28;20399;-70
2023/07/04 01:30:33;;;;;;;11.30;3.50;;;18.80;86.50;;;;;;2092369;28;20017;-70
2023/07/04 01:31:37;;;;;;;8.43;2.88;;;18.70;87.00;;;;;;2093056;28;20020;-70
2023/07/04 01:32:38;;;;;;;9.38;3.17;;;18.70;86.90;;;;;;2095352;28;20059;-70
2023/07/04 01:33:41;;;;;;;12.00;3.83;;;18.70;87.40;;;;;;2093450;28;20030;-70
2023/07/04 01:34:41;;;;;;;9.45;3.45;;;18.70;87.50;;;;;;2094538;28;20021;-70
2023/07/04 01:35:43;;;;;;;7.43;3.25;;;18.70;87.70;;;;;;2092415;28;20028;-70
2023/07/04 01:36:44;;;;;;;9.73;3.60;;;18.70;88.00;;;;;;2091741;28;20493;-70
2023/07/04 01:37:45;;;;;;;10.45;3.42;;;18.70;88.10;;;;;;2092338;28;20050;-70
2023/07/04 01:38:45;;;;;;;11.75;3.70;;;18.70;88.40;;;;;;2092421;28;20016;-70
2023/07/04 01:39:46;;;;;;;11.27;3.40;;;18.70;88.80;;;;;;2091576;28;20060;-70
2023/07/04 01:40:47;;;;;;;10.35;3.50;;;18.70;89.10;;;;;;2092729;28;20601;-69
2023/07/04 01:41:49;;;;;;;15.45;4.28;;;18.70;89.30;;;;;;2093693;28;20033;-69
2023/07/04 01:42:50;;;;;;;12.52;3.58;;;18.60;89.50;;;;;;2091963;28;20017;-71
2023/07/04 01:44:05;;;;;;;11.73;3.05;;;18.60;89.70;;;;;;2092990;28;20029;-71
2023/07/04 01:45:07;;;;;;;10.68;3.60;;;18.60;90.00;;;;;;2092872;28;20825;-72
2023/07/04 01:46:08;;;;;;;14.00;3.83;;;18.60;90.00;;;;;;2092963;28;20411;-72
2023/07/04 01:47:08;;;;;;;10.02;3.83;;;18.60;90.20;;;;;;2092707;28;20095;-71
2023/07/04 01:48:09;;;;;;;11.32;3.33;;;18.60;90.20;;;;;;2093073;28;20079;-72
2023/07/04 01:49:09;;;;;;;6.28;2.60;;;18.60;90.40;;;;;;2093630;28;20016;-72
2023/07/04 01:50:12;;;;;;;13.57;4.18;;;18.60;90.20;;;;;;2092647;28;20032;-72
2023/07/04 01:51:12;;;;;;;12.02;3.67;;;18.60;90.60;;;;;;2091793;28;20431;-72
2023/07/04 01:52:13;;;;;;;10.85;3.15;;;18.60;90.70;;;;;;2092172;28;20045;-72
2023/07/04 01:53:15;;;;;;;8.45;2.92;;;18.50;90.80;;;;;;2089747;28;20043;-71
2023/07/04 01:54:19;;;;;;;11.35;3.47;;;18.50;90.90;;;;;;2091687;28;20025;-71
2023/07/04 01:55:20;;;;;;;9.30;3.47;;;18.50;91.00;;;;;;2091067;28;20021;-71
2023/07/04 01:56:20;;;;;;;9.52;3.63;;;18.50;91.20;;;;;;2092279;28;20698;-71
2023/07/04 01:57:22;;;;;;;11.85;3.08;;;18.50;91.30;;;;;;2091470;28;20048;-71
2023/07/04 01:58:22;;;;;;;9.02;3.67;;;18.50;91.60;;;;;;2093125;28;20025;-71
2023/07/04 01:59:23;;;;;;;8.38;3.00;;;18.50;91.30;;;;;;2085454;28;20022;-71
2023/07/04 02:00:24;;;;;;;10.70;3.50;;;18.50;91.50;;;;;;2092275;28;20435;-70
2023/07/04 02:01:25;;;;;;;9.77;3.33;;;18.50;91.60;;;;;;2092662;28;20570;-69
2023/07/04 02:02:25;;;;;;;9.32;3.40;;;18.50;91.80;;;;;;2092881;28;20083;-71
2023/07/04 02:03:26;;;;;;;10.80;3.03;;;18.50;92.00;;;;;;2094138;28;20106;-70
2023/07/04 02:04:27;;;;;;;9.77;3.95;;;18.50;91.90;;;;;;2095047;28;20021;-69
2023/07/04 02:05:27;;;;;;;8.88;3.40;;;18.50;92.00;;;;;;2092225;28;20031;-69
2023/07/04 02:06:28;;;;;;;10.60;3.25;;;18.50;92.00;;;;;;2093997;28;20036;-69
2023/07/04 02:07:28;;;;;;;11.27;3.70;;;18.50;92.20;;;;;;2094080;28;20020;-71
2023/07/04 02:08:35;;;;;;;10.23;3.72;;;18.50;92.20;;;;;;2091833;28;20100;-69
2023/07/04 02:09:35;;;;;;;12.85;3.92;;;18.50;92.00;;;;;;2091646;28;20029;-71
2023/07/04 02:10:36;;;;;;;8.20;3.50;;;18.50;92.20;;;;;;2091330;28;20096;-69
2023/07/04 02:11:36;;;;;;;8.77;3.63;;;18.50;92.50;;;;;;2093801;28;20032;-69
2023/07/04 02:12:37;;;;;;;15.23;5.03;;;18.50;92.70;;;;;;2093050;28;20032;-69
2023/07/04 02:13:38;;;;;;;9.15;3.92;;;18.40;92.90;;;;;;2092759;28;20431;-69
2023/07/04 02:14:38;;;;;;;11.88;3.40;;;18.40;93.20;;;;;;2092059;28;20543;-69
2023/07/04 02:15:39;;;;;;;9.63;3.70;;;18.40;92.90;;;;;;2092947;28;20802;-69
2023/07/04 02:16:39;;;;;;;9.30;3.58;;;18.40;93.20;;;;;;2092587;28;20041;-69
2023/07/04 02:17:40;;;;;;;13.70;3.60;;;18.40;93.20;;;;;;2092087;28;20483;-69
2023/07/04 02:18:40;;;;;;;14.32;3.60;;;18.40;93.60;;;;;;2090465;28;20446;-71
2023/07/04 02:19:41;;;;;;;7.40;3.40;;;18.40;93.80;;;;;;2091361;28;20456;-69
2023/07/04 02:20:44;;;;;;;10.00;3.63;;;18.40;93.70;;;;;;2092029;28;20032;-71
2023/07/04 02:21:45;;;;;;;12.30;3.95;;;18.40;94.00;;;;;;2092256;28;20021;-71
2023/07/04 02:22:45;;;;;;;7.28;3.15;;;18.40;94.10;;;;;;2091303;28;20021;-71
2023/07/04 02:23:46;;;;;;;13.65;3.80;;;18.30;93.50;;;;;;2092958;28;20098;-72
2023/07/04 02:24:46;;;;;;;10.25;3.40;;;18.40;94.10;;;;;;2093106;28;20033;-72
2023/07/04 02:25:48;;;;;;;9.38;3.28;;;18.30;94.30;;;;;;2091788;28;20021;-71
2023/07/04 02:26:49;;;;;;;10.13;3.75;;;18.30;94.10;;;;;;2091452;28;20024;-71
2023/07/04 02:27:49;;;;;;;13.95;4.22;;;18.30;94.40;;;;;;2092455;28;20253;-69
2023/07/04 02:28:50;;;;;;;9.27;3.30;;;18.30;94.70;;;;;;2092355;28;20147;-69
2023/07/04 02:29:50;;;;;;;7.90;2.72;;;18.30;94.70;;;;;;2093423;28;20036;-69
2023/07/04 02:30:59;;;;;;;12.02;3.65;;;18.30;94.80;;;;;;2092169;28;20031;-71
2023/07/04 02:31:59;;;;;;;12.25;3.47;;;18.30;95.30;;;;;;2092158;28;20057;-69
2023/07/04 02:33:00;;;;;;;8.70;3.83;;;18.20;95.10;;;;;;2090947;28;20565;-71
2023/07/04 02:34:01;;;;;;;11.18;4.13;;;18.20;95.20;;;;;;2091527;28;20437;-70
2023/07/04 02:35:01;;;;;;;10.98;3.75;;;18.30;95.30;;;;;;2092567;28;20372;-69
2023/07/04 02:36:02;;;;;;;12.48;3.22;;;18.20;95.30;;;;;;2092605;28;20214;-70
2023/07/04 02:37:03;;;;;;;12.02;3.80;;;18.30;95.60;;;;;;2092426;28;20044;-71
2023/07/04 02:38:04;;;;;;;11.25;4.32;;;18.20;95.90;;;;;;2093474;28;20044;-72
2023/07/04 02:39:05;;;;;;;13.80;3.35;;;18.20;96.10;;;;;;2095351;28;20029;-70
2023/07/04 02:40:07;;;;;;;9.88;3.33;;;18.20;96.40;;;;;;2093860;28;20503;-70
2023/07/04 02:41:08;;;;;;;10.60;3.35;;;18.10;96.20;;;;;;2094256;28;20025;-69
2023/07/04 02:42:09;;;;;;;24.30;4.38;;;18.10;96.50;;;;;;2090772;28;20025;-71
2023/07/04 02:43:09;;;;;;;11.65;3.42;;;18.10;96.40;;;;;;2094686;28;20103;-72
2023/07/04 02:44:10;;;;;;;12.80;3.95;;;18.10;96.60;;;;;;2091562;28;20095;-70
2023/07/04 02:45:11;;;;;;;8.63;3.00;;;18.10;97.10;;;;;;2092210;28;20032;-71
2023/07/04 02:46:11;;;;;;;15.20;3.90;;;18.10;97.40;;;;;;2093422;28;20052;-71
2023/07/04 02:47:12;;;;;;;9.80;3.60;;;18.00;97.50;;;;;;2090722;28;20025;-71
2023/07/04 02:48:14;;;;;;;10.50;3.67;;;18.00;97.70;;;;;;2093347;28;20029;-70
2023/07/04 02:49:14;;;;;;;11.23;4.07;;;18.00;97.90;;;;;;2091650;28;20066;-71
2023/07/04 02:50:15;;;;;;;11.90;3.10;;;18.10;97.60;;;;;;2092069;28;20496;-71
2023/07/04 02:51:16;;;;;;;15.85;3.70;;;18.00;98.00;;;;;;2091489;28;20389;-71
2023/07/04 02:52:16;;;;;;;9.57;3.30;;;18.00;98.40;;;;;;2091936;28;20016;-71
2023/07/04 02:53:21;;;;;;;11.95;3.45;;;18.00;98.60;;;;;;2092074;28;20075;-71
2023/07/04 02:54:21;;;;;;;12.88;3.47;;;18.00;98.90;;;;;;2092390;28;20060;-71
2023/07/04 02:55:22;;;;;;;9.50;3.50;;;18.00;99.40;;;;;;2091091;28;20032;-71
2023/07/04 02:56:23;;;;;;;13.63;4.00;;;17.90;99.70;;;;;;2093503;28;20052;-72
2023/07/04 02:57:23;;;;;;;14.73;3.58;;;17.90;99.90;;;;;;2091737;28;20032;-71
2023/07/04 02:58:24;;;;;;;12.48;3.53;;;17.90;99.70;;;;;;2091744;28;21716;-71
2023/07/04 02:59:25;;;;;;;14.85;4.00;;;17.90;99.90;;;;;;2093052;28;20052;-71
2023/07/04 03:00:25;;;;;;;11.57;4.03;;;17.90;99.90;;;;;;2091637;28;20460;-71
2023/07/04 03:01:26;;;;;;;13.52;4.32;;;17.90;99.90;;;;;;2092877;28;20039;-71
2023/07/04 03:02:26;;;;;;;12.40;4.05;;;17.90;99.90;;;;;;2092871;28;20113;-71
2023/07/04 03:03:27;;;;;;;13.32;4.15;;;17.80;99.90;;;;;;2090089;28;20021;-71
2023/07/04 03:04:28;;;;;;;13.82;4.28;;;17.80;99.90;;;;;;2091521;28;20372;-71
2023/07/04 03:05:28;;;;;;;14.32;4.35;;;17.80;99.90;;;;;;2091298;28;20021;-71
2023/07/04 03:06:29;;;;;;;10.68;3.75;;;17.80;99.90;;;;;;2092420;28;20099;-71
2023/07/04 03:07:29;;;;;;;13.48;4.18;;;17.80;99.90;;;;;;2092249;28;20016;-71
2023/07/04 03:08:30;;;;;;;14.85;4.50;;;17.80;99.90;;;;;;2091900;28;20021;-71
2023/07/04 03:09:30;;;;;;;14.55;4.40;;;17.80;99.90;;;;;;2093377;28;20017;-71
2023/07/04 03:10:31;;;;;;;12.80;4.80;;;17.70;99.90;;;;;;2090940;28;20100;-71
2023/07/04 03:11:32;;;;;;;12.27;4.50;;;17.70;99.90;;;;;;2092574;28;20029;-71
2023/07/04 03:12:32;;;;;;;9.15;3.72;;;17.70;99.90;;;;;;2092374;28;20075;-71
2023/07/04 03:13:34;;;;;;;13.15;3.85;;;17.70;99.90;;;;;;2091467;28;20025;-71
2023/07/04 03:14:34;;;;;;;12.90;4.18;;;17.70;99.90;;;;;;2090952;28;20056;-71
2023/07/04 03:15:35;;;;;;;11.88;3.88;;;17.70;99.90;;;;;;2091447;28;20025;-71
2023/07/04 03:16:35;;;;;;;10.57;3.45;;;17.70;99.90;;;;;;2092123;28;20564;-71
2023/07/04 03:17:36;;;;;;;11.77;3.70;;;17.70;99.90;;;;;;2091723;28;20412;-71
2023/07/04 03:18:37;;;;;;;10.98;4.18;;;17.70;99.90;;;;;;2091747;28;20937;-71
2023/07/04 03:19:37;;;;;;;17.80;4.65;;;17.70;99.90;;;;;;2093143;28;20095;-71
2023/07/04 03:20:38;;;;;;;10.18;4.13;;;17.70;99.90;;;;;;2091181;28;20041;-71
2023/07/04 03:21:39;;;;;;;15.02;3.92;;;17.70;99.90;;;;;;2091877;28;20029;-71
2023/07/04 03:22:41;;;;;;;12.98;4.35;;;17.70;99.90;;;;;;2091959;28;20029;-71
2023/07/04 03:23:41;;;;;;;15.95;3.80;;;17.70;99.90;;;;;;2091059;28;20021;-71
2023/07/04 03:24:42;;;;;;;14.15;4.10;;;17.70;99.90;;;;;;2092028;28;20052;-71
2023/07/04 03:25:43;;;;;;;12.27;3.90;;;17.70;99.90;;;;;;2092163;28;20024;-71
2023/07/04 03:26:45;;;;;;;15.07;5.28;;;17.70;99.90;;;;;;2092434;28;20412;-71
2023/07/04 03:27:45;;;;;;;13.10;4.03;;;17.70;99.90;;;;;;2093177;28;20021;-71
2023/07/04 03:28:46;;;;;;;11.73;3.90;;;17.70;99.90;;;;;;2091184;28;20024;-71
2023/07/04 03:29:46;;;;;;;10.95;4.00;;;17.70;99.90;;;;;;2092167;28;20024;-71
2023/07/04 03:30:47;;;;;;;12.80;3.83;;;17.70;99.90;;;;;;2091586;28;20029;-71
2023/07/04 03:31:47;;;;;;;12.07;4.07;;;17.70;99.90;;;;;;2091917;28;20095;-71
2023/07/04 03:32:48;;;;;;;15.43;4.32;;;17.70;99.90;;;;;;2092101;28;20033;-71
2023/07/04 03:33:50;;;;;;;11.05;4.03;;;17.70;99.90;;;;;;2091900;28;20253;-71
2023/07/04 03:34:50;;;;;;;15.07;4.25;;;17.70;99.90;;;;;;2091887;28;20024;-71
2023/07/04 03:35:51;;;;;;;16.30;4.57;;;17.70;99.90;;;;;;2092970;28;20714;-71
2023/07/04 03:36:51;;;;;;;11.35;4.15;;;17.70;99.90;;;;;;2093302;28;20017;-71
2023/07/04 03:37:52;;;;;;;14.25;3.58;;;17.70;99.90;;;;;;2094053;28;20024;-71
2023/07/04 03:38:52;;;;;;;15.48;4.75;;;17.70;99.90;;;;;;2091782;28;20032;-71
2023/07/04 03:39:53;;;;;;;13.98;4.20;;;17.70;99.90;;;;;;2089782;28;20072;-71
2023/07/04 03:40:53;;;;;;;11.70;3.70;;;17.70;99.90;;;;;;2091232;28;20029;-71
2023/07/04 03:41:54;;;;;;;12.35;3.63;;;17.70;99.90;;;;;;2091315;28;20046;-71
2023/07/04 03:42:54;;;;;;;16.02;4.25;;;17.70;99.90;;;;;;2091691;28;20450;-72
2023/07/04 03:43:55;;;;;;;16.83;4.35;;;17.70;99.90;;;;;;2092586;28;20432;-72
2023/07/04 03:44:55;;;;;;;16.42;4.57;;;17.70;99.90;;;;;;2090574;28;20414;-72
2023/07/04 03:45:56;;;;;;;11.55;3.55;;;17.70;99.90;;;;;;2092349;28;20531;-71
2023/07/04 03:46:56;;;;;;;8.52;3.25;;;17.70;99.90;;;;;;2091777;28;20487;-71
2023/07/04 03:47:57;;;;;;;17.15;4.90;;;17.70;99.90;;;;;;2092878;28;20048;-71
2023/07/04 03:48:57;;;;;;;13.82;4.00;;;17.70;99.90;;;;;;2092564;28;20028;-71
2023/07/04 03:49:58;;;;;;;14.35;4.28;;;17.60;99.90;;;;;;2091440;28;20060;-71
2023/07/04 03:50:58;;;;;;;13.85;4.25;;;17.60;99.90;;;;;;2091712;28;20023;-71
2023/07/04 03:51:59;;;;;;;12.95;3.97;;;17.60;99.90;;;;;;2091680;28;20021;-71
2023/07/04 03:52:59;;;;;;;14.13;4.50;;;17.60;99.90;;;;;;2091519;28;20099;-71
2023/07/04 03:54:00;;;;;;;12.07;3.80;;;17.60;99.90;;;;;;2090405;28;20033;-71
2023/07/04 03:55:01;;;;;;;14.48;4.25;;;17.60;99.90;;;;;;2091373;28;20541;-71
2023/07/04 03:56:01;;;;;;;12.32;3.90;;;17.60;99.90;;;;;;2092277;28;20173;-71
2023/07/04 03:57:02;;;;;;;14.43;3.97;;;17.60;99.90;;;;;;2093342;28;20061;-71
2023/07/04 03:58:03;;;;;;;12.60;3.78;;;17.60;99.90;;;;;;2092562;28;20035;-72
2023/07/04 03:59:03;;;;;;;12.65;3.75;;;17.60;99.90;;;;;;2092474;28;20021;-71
2023/07/04 04:00:11;;;;;;;12.52;4.40;;;17.60;99.90;;;;;;2092441;28;20031;-72
2023/07/04 04:01:11;;;;;;;14.88;4.10;;;17.60;99.90;;;;;;2091837;28;20103;-72
2023/07/04 04:02:12;;;;;;;10.07;3.72;;;17.50;99.90;;;;;;2092428;28;20021;-71
2023/07/04 04:03:12;;;;;;;15.20;4.40;;;17.60;99.90;;;;;;2091777;28;20044;-72
2023/07/04 04:04:13;;;;;;;12.85;4.47;;;17.50;99.90;;;;;;2091593;28;20112;-72
2023/07/04 04:05:14;;;;;;;11.43;3.78;;;17.50;99.90;;;;;;2090978;28;20481;-72
2023/07/04 04:06:14;;;;;;;11.52;3.85;;;17.50;99.90;;;;;;2090778;28;20032;-71
2023/07/04 04:07:15;;;;;;;10.45;4.22;;;17.50;99.90;;;;;;2089918;28;20028;-72
2023/07/04 04:08:15;;;;;;;11.57;3.72;;;17.50;99.90;;;;;;2092169;28;20025;-72
2023/07/04 04:09:16;;;;;;;16.73;4.47;;;17.50;99.90;;;;;;2092318;28;20034;-72
2023/07/04 04:10:17;;;;;;;12.57;3.88;;;17.60;99.90;;;;;;2089964;28;20566;-71
2023/07/04 04:11:18;;;;;;;10.45;3.55;;;17.60;99.90;;;;;;2091549;28;20029;-72
2023/07/04 04:12:18;;;;;;;12.23;4.50;;;17.60;99.90;;;;;;2090649;28;20027;-72
2023/07/04 04:13:19;;;;;;;15.13;4.45;;;17.60;99.90;;;;;;2090956;28;20052;-72
2023/07/04 04:14:19;;;;;;;13.07;4.10;;;17.60;99.90;;;;;;2090525;28;20064;-72
2023/07/04 04:15:20;;;;;;;12.95;4.00;;;17.60;99.90;;;;;;2091204;28;20052;-72
2023/07/04 04:16:22;;;;;;;13.13;3.33;;;17.60;99.90;;;;;;2089365;28;20039;-72
2023/07/04 04:17:22;;;;;;;12.85;3.80;;;17.70;99.90;;;;;;2089062;28;20094;-72
2023/07/04 04:18:23;;;;;;;13.68;4.10;;;17.70;99.90;;;;;;2091548;28;20029;-72
2023/07/04 04:19:24;;;;;;;15.23;4.63;;;17.80;99.90;;;;;;2091794;28;20065;-72
2023/07/04 04:20:25;;;;;;;11.63;3.67;;;17.70;99.90;;;;;;2090903;28;20025;-72
2023/07/04 04:21:26;;;;;;;15.70;4.55;;;17.70;99.90;;;;;;2091386;28;20016;-71
2023/07/04 04:22:26;;;;;;;9.52;3.90;;;17.80;99.90;;;;;;2091977;28;20166;-71
2023/07/04 04:23:27;;;;;;;17.35;3.95;;;17.70;99.90;;;;;;2093461;28;20449;-72
2023/07/04 04:24:28;;;;;;;14.02;3.92;;;17.70;99.90;;;;;;2091363;28;20387;-72
2023/07/04 04:25:28;;;;;;;10.57;3.92;;;17.80;99.90;;;;;;2091985;28;20031;-72
2023/07/04 04:26:37;;;;;;;15.07;4.57;;;17.70;99.90;;;;;;2091146;28;20023;-72
2023/07/04 04:27:38;;;;;;;11.75;3.90;;;17.70;99.90;;;;;;2091949;28;20489;-72
2023/07/04 04:28:40;;;;;;;13.88;4.13;;;17.70;99.90;;;;;;2093123;28;20025;-72
2023/07/04 04:29:41;;;;;;;18.25;4.38;;;17.70;99.90;;;;;;2092034;28;20532;-72
2023/07/04 04:30:42;;;;;;;14.65;4.20;;;17.70;99.90;;;;;;2091903;28;20459;-72
2023/07/04 04:31:44;;;;;;;9.65;3.78;;;17.70;99.90;;;;;;2091835;28;20104;-72
2023/07/04 04:32:45;;;;;;;14.80;4.07;;;17.70;99.90;;;;;;2091429;28;20029;-72
2023/07/04 04:33:45;;;;;;;14.55;4.50;;;17.70;99.90;;;;;;2090794;28;20056;-72
2023/07/04 04:34:46;;;;;;;15.60;4.40;;;17.70;99.90;;;;;;2091932;28;20103;-72
2023/07/04 04:35:46;;;;;;;13.80;3.88;;;17.70;99.90;;;;;;2090363;28;20182;-72
2023/07/04 04:36:47;;;;;;;13.23;4.85;;;17.70;99.90;;;;;;2091596;28;20369;-72
2023/07/04 04:37:47;;;;;;;17.65;5.80;;;17.70;99.90;;;;;;2091714;28;20029;-72
2023/07/04 04:38:49;;;;;;;18.90;6.68;;;17.70;99.90;;;;;;2091059;28;20033;-72
2023/07/04 04:39:49;;;;;;;17.63;6.22;;;17.70;99.90;;;;;;2092331;28;20067;-72
2023/07/04 04:40:50;;;;;;;20.48;6.22;;;17.70;99.90;;;;;;2091111;28;20041;-72
2023/07/04 04:41:52;;;;;;;21.30;6.70;;;17.70;99.90;;;;;;2090443;28;20029;-72
2023/07/04 04:42:55;;;;;;;17.25;6.15;;;17.70;99.90;;;;;;2091582;28;20024;-72
2023/07/04 04:44:01;;;;;;;16.85;5.35;;;17.70;99.90;;;;;;2091728;28;20017;-72
2023/07/04 04:45:03;;;;;;;19.17;5.32;;;17.80;99.90;;;;;;2092559;28;20023;-72
2023/07/04 04:46:04;;;;;;;8.68;3.70;;;17.70;99.90;;;;;;2092656;28;20033;-72
2023/07/04 04:47:05;;;;;;;14.65;4.43;;;17.70;99.90;;;;;;2092978;28;20045;-71
2023/07/04 04:48:06;;;;;;;14.10;4.38;;;17.80;99.90;;;;;;2092101;28;20027;-71
2023/07/04 04:49:08;;;;;;;16.40;5.30;;;17.80;99.90;;;;;;2093510;28;20039;-71
2023/07/04 04:50:08;;;;;;;15.77;5.22;;;17.80;99.90;;;;;;2091679;28;20024;-71
2023/07/04 04:51:12;;;;;;;14.43;4.63;;;17.80;99.90;;;;;;2092727;28;20029;-71
2023/07/04 04:52:13;;;;;;;13.88;4.45;;;17.80;99.90;;;;;;2092669;28;20037;-71
2023/07/04 04:53:14;;;;;;;17.92;4.85;;;17.80;99.90;;;;;;2093252;28;20052;-71
2023/07/04 04:54:15;;;;;;;16.35;6.10;;;17.90;99.90;;;;;;2092591;28;20048;-71
2023/07/04 04:55:16;;;;;;;13.90;4.93;;;17.90;99.90;;;;;;2092964;28;20025;-71
2023/07/04 04:56:16;;;;;;;12.68;4.28;;;17.90;99.90;;;;;;2093519;28;20060;-71
2023/07/04 04:57:17;;;;;;;14.90;4.28;;;17.90;99.90;;;;;;2093238;28;20040;-71
2023/07/04 04:58:18;;;;;;;19.20;4.88;;;18.00;99.90;;;;;;2094531;28;20373;-71
2023/07/04 04:59:19;;;;;;;13.98;4.43;;;18.00;99.90;;;;;;2093589;28;20075;-71
2023/07/04 05:00:20;;;;;;;15.05;3.95;;;18.00;99.90;;;;;;2092939;28;20033;-72
2023/07/04 05:01:23;;;;;;;16.25;4.70;;;18.10;99.90;;;;;;2094202;28;20543;-71
2023/07/04 05:02:23;;;;;;;14.85;4.20;;;18.10;99.90;;;;;;2092700;28;20051;-71
2023/07/04 05:03:25;;;;;;;10.88;4.10;;;18.20;99.90;;;;;;2092065;28;20035;-71
2023/07/04 05:04:25;;;;;;;14.35;4.25;;;18.20;99.90;;;;;;2092122;28;20029;-72
2023/07/04 05:05:26;;;;;;;14.50;4.13;;;18.20;99.90;;;;;;2092106;28;20017;-72
2023/07/04 05:06:27;;;;;;;18.10;4.43;;;18.30;99.90;;;;;;2094397;28;20031;-71
2023/07/04 05:07:28;;;;;;;14.25;4.38;;;18.30;99.90;;;;;;2090600;28;20017;-71
2023/07/04 05:08:29;;;;;;;13.68;5.00;;;18.30;99.90;;;;;;2093710;28;20052;-71
2023/07/04 05:09:31;;;;;;;13.20;5.13;;;18.40;99.90;;;;;;2093534;28;20036;-71
2023/07/04 05:10:31;;;;;;;21.15;4.70;;;18.50;99.90;;;;;;2092094;28;20028;-71
2023/07/04 05:11:32;;;;;;;13.07;4.85;;;18.50;99.90;;;;;;2093752;28;20031;-71
2023/07/04 05:12:34;;;;;;;12.63;4.25;;;18.50;99.90;;;;;;2092365;28;20020;-71
2023/07/04 05:13:36;;;;;;;12.55;4.45;;;18.60;99.90;;;;;;2093246;28;20055;-71
2023/07/04 05:14:37;;;;;;;16.20;4.47;;;18.70;99.90;;;;;;2094568;28;20120;-72
2023/07/04 05:15:38;;;;;;;15.43;5.05;;;18.70;99.90;;;;;;2091701;28;20021;-72
2023/07/04 05:16:38;;;;;;;12.13;4.30;;;18.80;99.90;;;;;;2092450;28;20029;-71
2023/07/04 05:17:39;;;;;;;12.40;4.05;;;18.80;99.90;;;;;;2094463;28;20039;-72
2023/07/04 05:18:41;;;;;;;12.73;4.47;;;18.90;99.90;;;;;;2093744;28;20386;-71